CES2031 ZPPP-VYYY
Flight info
| Callsign | CES2031 |
|---|---|
| Flight time | N/A |
| Altitude | 36100 |
| Route | GULOT1Y GULOT A599 LINSO/N0466F360 A599 LSO DCT BAGOO |
| Aircraft | A320/M-SDE3FGHIRWY/LB1 |
Departure
| Time | 2026-05-09 12:18 |
|---|---|
| Airport | Kunming Changshui International Airport (ZPPP) |
Arrival
| Time | N/A |
|---|---|
| Airport | Yangon International Airport (VYYY) |
| Time | Latitude | Longitude | Altitude | Speed | Heading |
|---|---|---|---|---|---|
| 2026-05-09 11:53 | 25.10567 | 102.93019 | 6901 ft | 0 kts | 250° |
| 2026-05-09 12:11 | 25.10569 | 102.93026 | 6902 ft | 4 kts | 252° |
| 2026-05-09 12:12 | 25.10577 | 102.93054 | 6901 ft | 4 kts | 239° |
| 2026-05-09 12:12 | 25.10590 | 102.93071 | 6901 ft | 4 kts | 223° |
| 2026-05-09 12:12 | 25.10611 | 102.93090 | 6901 ft | 4 kts | 212° |
| 2026-05-09 12:12 | 25.10634 | 102.93103 | 6901 ft | 4 kts | 191° |
| 2026-05-09 12:13 | 25.10654 | 102.93104 | 6901 ft | 0 kts | 165° |
| 2026-05-09 12:14 | 25.10635 | 102.93118 | 6901 ft | 7 kts | 134° |
| 2026-05-09 12:15 | 25.10610 | 102.93195 | 6900 ft | 15 kts | 123° |
| 2026-05-09 12:15 | 25.10539 | 102.93291 | 6898 ft | 17 kts | 128° |
| 2026-05-09 12:15 | 25.10475 | 102.93412 | 6897 ft | 18 kts | 98° |
| 2026-05-09 12:15 | 25.10468 | 102.93556 | 6895 ft | 19 kts | 103° |
| 2026-05-09 12:16 | 25.10393 | 102.93678 | 6895 ft | 20 kts | 127° |
| 2026-05-09 12:16 | 25.10303 | 102.93796 | 6894 ft | 21 kts | 132° |
| 2026-05-09 12:16 | 25.10247 | 102.93926 | 6894 ft | 19 kts | 63° |
| 2026-05-09 12:16 | 25.10351 | 102.94020 | 6893 ft | 20 kts | 38° |
| 2026-05-09 12:17 | 25.10459 | 102.94126 | 6893 ft | 22 kts | 43° |
| 2026-05-09 12:17 | 25.10583 | 102.94232 | 6892 ft | 23 kts | 39° |
| 2026-05-09 12:17 | 25.10644 | 102.94347 | 6891 ft | 16 kts | 131° |
| 2026-05-09 12:17 | 25.10526 | 102.94360 | 6892 ft | 21 kts | 188° |
| 2026-05-09 12:18 | 25.10315 | 102.94248 | 6894 ft | 64 kts | 217° |
| 2026-05-09 12:18 | 25.09754 | 102.93756 | 6892 ft | 140 kts | 218° |
| 2026-05-09 12:18 | 25.08819 | 102.92957 | 7035 ft | 188 kts | 218° |
| 2026-05-09 12:18 | 25.07795 | 102.92093 | 7875 ft | 180 kts | 219° |
| 2026-05-09 12:19 | 25.06792 | 102.91223 | 8301 ft | 192 kts | 220° |
| 2026-05-09 12:19 | 25.05684 | 102.90249 | 8501 ft | 216 kts | 219° |
| 2026-05-09 12:19 | 25.04441 | 102.89155 | 8737 ft | 240 kts | 220° |
| 2026-05-09 12:19 | 25.03094 | 102.87968 | 9168 ft | 256 kts | 219° |
| 2026-05-09 12:20 | 25.01690 | 102.86740 | 9887 ft | 259 kts | 219° |
| 2026-05-09 12:20 | 25.00270 | 102.85500 | 10644 ft | 261 kts | 220° |
| 2026-05-09 12:20 | 24.98832 | 102.84251 | 11323 ft | 264 kts | 220° |
| 2026-05-09 12:20 | 24.97401 | 102.83012 | 12019 ft | 266 kts | 220° |
| 2026-05-09 12:21 | 24.95937 | 102.81748 | 12690 ft | 269 kts | 221° |
| 2026-05-09 12:21 | 24.94465 | 102.80453 | 13314 ft | 271 kts | 225° |
| 2026-05-09 12:21 | 24.93440 | 102.78761 | 13954 ft | 268 kts | 256° |
| 2026-05-09 12:21 | 24.93457 | 102.76731 | 14531 ft | 271 kts | 286° |
| 2026-05-09 12:22 | 24.94283 | 102.74850 | 15118 ft | 276 kts | 300° |
| 2026-05-09 12:22 | 24.95404 | 102.73111 | 15704 ft | 280 kts | 304° |
| 2026-05-09 12:22 | 24.96596 | 102.71400 | 16282 ft | 282 kts | 303° |
| 2026-05-09 12:22 | 24.97771 | 102.69658 | 16869 ft | 285 kts | 302° |
| 2026-05-09 12:23 | 24.98913 | 102.67864 | 17441 ft | 287 kts | 300° |
| 2026-05-09 12:23 | 25.00019 | 102.66022 | 18010 ft | 289 kts | 298° |
| 2026-05-09 12:23 | 25.01105 | 102.64145 | 18576 ft | 291 kts | 298° |
| 2026-05-09 12:23 | 25.02181 | 102.62246 | 19054 ft | 294 kts | 297° |
| 2026-05-09 12:24 | 25.03303 | 102.60279 | 19188 ft | 311 kts | 298° |
| 2026-05-09 12:24 | 25.04502 | 102.58210 | 19305 ft | 328 kts | 298° |
| 2026-05-09 12:24 | 25.05760 | 102.56035 | 19419 ft | 343 kts | 296° |
| 2026-05-09 12:24 | 25.06664 | 102.53572 | 19533 ft | 352 kts | 280° |
| 2026-05-09 12:25 | 25.06866 | 102.50855 | 19646 ft | 362 kts | 264° |
| 2026-05-09 12:25 | 25.06295 | 102.48155 | 19831 ft | 372 kts | 247° |
| 2026-05-09 12:25 | 25.05118 | 102.45593 | 20217 ft | 377 kts | 243° |
| 2026-05-09 12:25 | 25.03888 | 102.43028 | 20691 ft | 379 kts | 243° |
| 2026-05-09 12:26 | 25.02656 | 102.40440 | 21168 ft | 381 kts | 243° |
| 2026-05-09 12:26 | 25.01425 | 102.37843 | 21650 ft | 383 kts | 243° |
| 2026-05-09 12:26 | 25.00186 | 102.35233 | 22092 ft | 385 kts | 243° |
| 2026-05-09 12:26 | 24.98936 | 102.32604 | 22540 ft | 387 kts | 243° |
| 2026-05-09 12:27 | 24.97681 | 102.29970 | 22986 ft | 388 kts | 243° |
| 2026-05-09 12:27 | 24.96422 | 102.27329 | 23419 ft | 390 kts | 243° |
| 2026-05-09 12:27 | 24.95159 | 102.24679 | 23838 ft | 392 kts | 243° |
| 2026-05-09 12:27 | 24.93891 | 102.22019 | 24171 ft | 393 kts | 243° |
| 2026-05-09 12:28 | 24.92627 | 102.19373 | 24457 ft | 395 kts | 243° |
| 2026-05-09 12:28 | 24.91326 | 102.16661 | 24766 ft | 396 kts | 243° |
| 2026-05-09 12:28 | 24.90057 | 102.14008 | 25080 ft | 397 kts | 243° |
| 2026-05-09 12:28 | 24.88771 | 102.11313 | 25416 ft | 398 kts | 243° |
| 2026-05-09 12:29 | 24.87479 | 102.08609 | 25728 ft | 399 kts | 243° |
| 2026-05-09 12:29 | 24.86181 | 102.05902 | 26056 ft | 400 kts | 243° |
| 2026-05-09 12:29 | 24.84881 | 102.03192 | 26339 ft | 402 kts | 242° |
| 2026-05-09 12:29 | 24.83572 | 102.00461 | 26624 ft | 404 kts | 242° |
| 2026-05-09 12:30 | 24.82258 | 101.97724 | 26920 ft | 405 kts | 242° |
| 2026-05-09 12:30 | 24.80934 | 101.94970 | 27171 ft | 408 kts | 242° |
| 2026-05-09 12:30 | 24.78276 | 101.89445 | 27778 ft | 409 kts | 242° |
| 2026-05-09 12:31 | 24.76940 | 101.86678 | 28069 ft | 409 kts | 242° |
| 2026-05-09 12:31 | 24.74280 | 101.81162 | 28605 ft | 411 kts | 242° |
| 2026-05-09 12:31 | 24.72942 | 101.78383 | 28843 ft | 412 kts | 242° |
| 2026-05-09 12:32 | 24.71602 | 101.75597 | 29094 ft | 413 kts | 242° |
| 2026-05-09 12:32 | 24.70255 | 101.72802 | 29340 ft | 414 kts | 242° |
| 2026-05-09 12:32 | 24.68905 | 101.70002 | 29538 ft | 415 kts | 242° |
| 2026-05-09 12:32 | 24.67547 | 101.67188 | 29744 ft | 417 kts | 242° |
| 2026-05-09 12:33 | 24.66190 | 101.64383 | 30051 ft | 415 kts | 241° |
| 2026-05-09 12:33 | 24.64838 | 101.61590 | 30381 ft | 412 kts | 242° |
| 2026-05-09 12:33 | 24.63492 | 101.58810 | 30638 ft | 411 kts | 241° |
| 2026-05-09 12:33 | 24.62149 | 101.56038 | 30930 ft | 410 kts | 241° |
| 2026-05-09 12:34 | 24.60805 | 101.53280 | 31198 ft | 409 kts | 242° |
| 2026-05-09 12:34 | 24.59448 | 101.50524 | 31451 ft | 408 kts | 242° |
| 2026-05-09 12:34 | 24.58096 | 101.47787 | 31686 ft | 406 kts | 242° |
| 2026-05-09 12:34 | 24.56742 | 101.45053 | 31824 ft | 409 kts | 242° |
| 2026-05-09 12:35 | 24.55383 | 101.42310 | 32036 ft | 409 kts | 242° |
| 2026-05-09 12:35 | 24.54042 | 101.39600 | 32257 ft | 408 kts | 242° |
| 2026-05-09 12:35 | 24.52691 | 101.36864 | 32423 ft | 409 kts | 242° |
| 2026-05-09 12:35 | 24.51335 | 101.34118 | 32676 ft | 408 kts | 242° |
| 2026-05-09 12:36 | 24.49988 | 101.31386 | 32822 ft | 406 kts | 242° |
| 2026-05-09 12:36 | 24.48640 | 101.28654 | 32997 ft | 406 kts | 242° |
| 2026-05-09 12:36 | 24.47294 | 101.25932 | 33275 ft | 405 kts | 242° |
| 2026-05-09 12:36 | 24.45947 | 101.23211 | 33550 ft | 404 kts | 242° |
| 2026-05-09 12:37 | 24.44609 | 101.20512 | 33866 ft | 403 kts | 242° |
| 2026-05-09 12:37 | 24.43268 | 101.17817 | 34157 ft | 402 kts | 242° |
| 2026-05-09 12:37 | 24.41923 | 101.15121 | 34393 ft | 402 kts | 242° |
| 2026-05-09 12:37 | 24.40586 | 101.12442 | 34616 ft | 401 kts | 243° |
| 2026-05-09 12:38 | 24.39249 | 101.09758 | 34849 ft | 400 kts | 243° |
| 2026-05-09 12:38 | 24.37917 | 101.07081 | 35052 ft | 400 kts | 243° |
| 2026-05-09 12:38 | 24.36588 | 101.04397 | 35263 ft | 400 kts | 243° |
| 2026-05-09 12:38 | 24.35281 | 101.01755 | 35488 ft | 399 kts | 243° |
| 2026-05-09 12:39 | 24.33958 | 100.99085 | 35677 ft | 397 kts | 243° |
| 2026-05-09 12:39 | 24.32637 | 100.96426 | 35874 ft | 397 kts | 242° |
| 2026-05-09 12:39 | 24.31314 | 100.93769 | 36052 ft | 397 kts | 243° |
| 2026-05-09 12:40 | 24.28648 | 100.88436 | 36128 ft | 401 kts | 243° |
| 2026-05-09 12:40 | 24.25956 | 100.83053 | 36114 ft | 403 kts | 243° |
| 2026-05-09 12:41 | 24.23265 | 100.77670 | 36108 ft | 403 kts | 243° |
| 2026-05-09 12:41 | 24.20576 | 100.72287 | 36108 ft | 403 kts | 243° |
| 2026-05-09 12:42 | 24.17877 | 100.66911 | 36089 ft | 402 kts | 243° |
| 2026-05-09 12:42 | 24.15188 | 100.61545 | 36082 ft | 402 kts | 243° |
| 2026-05-09 12:43 | 24.12491 | 100.56175 | 36078 ft | 402 kts | 243° |
| 2026-05-09 12:43 | 24.09777 | 100.50818 | 36082 ft | 402 kts | 242° |
| 2026-05-09 12:44 | 24.07036 | 100.45493 | 36078 ft | 402 kts | 243° |
| 2026-05-09 12:44 | 24.04313 | 100.40200 | 36074 ft | 402 kts | 243° |
| 2026-05-09 12:45 | 24.01574 | 100.34854 | 36038 ft | 403 kts | 242° |
| 2026-05-09 12:45 | 23.98815 | 100.29480 | 36037 ft | 406 kts | 242° |
| 2026-05-09 12:46 | 23.96040 | 100.24094 | 36036 ft | 407 kts | 242° |
| 2026-05-09 12:46 | 23.93244 | 100.18678 | 36065 ft | 409 kts | 242° |
| 2026-05-09 12:47 | 23.90458 | 100.13276 | 36076 ft | 408 kts | 242° |
| 2026-05-09 12:47 | 23.87695 | 100.07921 | 36068 ft | 406 kts | 242° |
| 2026-05-09 12:48 | 23.84928 | 100.02550 | 36067 ft | 405 kts | 242° |
| 2026-05-09 12:48 | 23.82163 | 99.97190 | 36053 ft | 404 kts | 242° |
| 2026-05-09 12:49 | 23.79399 | 99.91846 | 36056 ft | 404 kts | 242° |
| 2026-05-09 12:49 | 23.76630 | 99.86506 | 36057 ft | 404 kts | 242° |
| 2026-05-09 12:50 | 23.73853 | 99.81164 | 36026 ft | 404 kts | 242° |
| 2026-05-09 12:50 | 23.71073 | 99.75824 | 36013 ft | 405 kts | 242° |
| 2026-05-09 12:51 | 23.68286 | 99.70469 | 36011 ft | 406 kts | 241° |
| 2026-05-09 12:51 | 23.65518 | 99.65141 | 36001 ft | 406 kts | 241° |
| 2026-05-09 12:52 | 23.62727 | 99.59777 | 36004 ft | 408 kts | 242° |
| 2026-05-09 12:52 | 23.59925 | 99.54408 | 36012 ft | 407 kts | 242° |
| 2026-05-09 12:53 | 23.57118 | 99.49045 | 36013 ft | 407 kts | 241° |
| 2026-05-09 12:53 | 23.54317 | 99.43688 | 36022 ft | 406 kts | 241° |
| 2026-05-09 12:54 | 23.52286 | 99.39091 | 36024 ft | 406 kts | 251° |
| 2026-05-09 12:54 | 23.50198 | 99.32319 | 36014 ft | 405 kts | 251° |
| 2026-05-09 12:55 | 23.48392 | 99.26514 | 36013 ft | 405 kts | 250° |
| 2026-05-09 12:55 | 23.46870 | 99.21655 | 35991 ft | 405 kts | 251° |
| 2026-05-09 12:56 | 23.45055 | 99.15837 | 35983 ft | 405 kts | 251° |
| 2026-05-09 12:56 | 23.43249 | 99.10054 | 35978 ft | 406 kts | 251° |
| 2026-05-09 12:57 | 23.41427 | 99.04215 | 35974 ft | 407 kts | 251° |
| 2026-05-09 12:57 | 23.39604 | 98.98377 | 35968 ft | 407 kts | 250° |
| 2026-05-09 12:58 | 23.37775 | 98.92556 | 35966 ft | 407 kts | 250° |
| 2026-05-09 12:58 | 23.35893 | 98.86737 | 35965 ft | 407 kts | 250° |
| 2026-05-09 12:59 | 23.33708 | 98.81061 | 35964 ft | 408 kts | 237° |
| 2026-05-09 12:59 | 23.31836 | 98.78738 | 35961 ft | 411 kts | 222° |
| 2026-05-09 12:59 | 23.29577 | 98.76873 | 35962 ft | 413 kts | 219° |
| 2026-05-09 13:00 | 23.24937 | 98.73185 | 35958 ft | 413 kts | 219° |
| 2026-05-09 13:00 | 23.20279 | 98.69511 | 35949 ft | 413 kts | 219° |
| 2026-05-09 13:01 | 23.15621 | 98.65835 | 35932 ft | 415 kts | 219° |
| 2026-05-09 13:01 | 23.10939 | 98.62120 | 35941 ft | 416 kts | 219° |
| 2026-05-09 13:02 | 23.06254 | 98.58404 | 35954 ft | 415 kts | 219° |
| 2026-05-09 13:02 | 23.01566 | 98.54694 | 35943 ft | 418 kts | 219° |
| 2026-05-09 13:03 | 22.96847 | 98.50963 | 35974 ft | 420 kts | 219° |
| 2026-05-09 13:03 | 22.92133 | 98.47234 | 35979 ft | 419 kts | 219° |
| 2026-05-09 13:04 | 22.87415 | 98.43511 | 35988 ft | 419 kts | 219° |
| 2026-05-09 13:04 | 22.82708 | 98.39805 | 35975 ft | 421 kts | 219° |
| 2026-05-09 13:05 | 22.77954 | 98.36062 | 35969 ft | 423 kts | 219° |
| 2026-05-09 13:05 | 22.73199 | 98.32314 | 35977 ft | 423 kts | 219° |
| 2026-05-09 13:06 | 22.68442 | 98.28575 | 35987 ft | 422 kts | 219° |
| 2026-05-09 13:06 | 22.63682 | 98.24847 | 35996 ft | 422 kts | 219° |
| 2026-05-09 13:07 | 22.58921 | 98.21112 | 35995 ft | 422 kts | 219° |
| 2026-05-09 13:07 | 22.54196 | 98.17403 | 35971 ft | 423 kts | 219° |
| 2026-05-09 13:08 | 22.49434 | 98.13665 | 35975 ft | 424 kts | 219° |
| 2026-05-09 13:08 | 22.44656 | 98.09929 | 35981 ft | 423 kts | 218° |
| 2026-05-09 13:09 | 22.39885 | 98.06199 | 35976 ft | 423 kts | 219° |
| 2026-05-09 13:09 | 22.35104 | 98.02458 | 35973 ft | 425 kts | 219° |
| 2026-05-09 13:10 | 22.30302 | 97.98708 | 35978 ft | 426 kts | 219° |
| 2026-05-09 13:10 | 22.25494 | 97.94955 | 35986 ft | 426 kts | 218° |
| 2026-05-09 13:11 | 22.20690 | 97.91212 | 35988 ft | 426 kts | 218° |
| 2026-05-09 13:11 | 22.15881 | 97.87476 | 35999 ft | 426 kts | 218° |
| 2026-05-09 13:12 | 22.11073 | 97.83731 | 36007 ft | 426 kts | 218° |
| 2026-05-09 13:12 | 22.06267 | 97.79995 | 36003 ft | 426 kts | 218° |
| 2026-05-09 13:13 | 22.01467 | 97.76266 | 36010 ft | 426 kts | 218° |
| 2026-05-09 13:13 | 21.96654 | 97.72527 | 36006 ft | 426 kts | 219° |
| 2026-05-09 13:14 | 21.91848 | 97.68800 | 36013 ft | 426 kts | 218° |
| 2026-05-09 13:16 | 21.72670 | 97.53947 | 36002 ft | 424 kts | 218° |
| 2026-05-09 13:16 | 21.67866 | 97.50251 | 36005 ft | 424 kts | 218° |
| 2026-05-09 13:17 | 21.63101 | 97.46583 | 35996 ft | 424 kts | 218° |
| 2026-05-09 13:17 | 21.58294 | 97.42884 | 35994 ft | 424 kts | 218° |
| 2026-05-09 13:18 | 21.53491 | 97.39187 | 35996 ft | 425 kts | 218° |
| 2026-05-09 13:18 | 21.48670 | 97.35487 | 35994 ft | 426 kts | 218° |
| 2026-05-09 13:19 | 21.43846 | 97.31774 | 35997 ft | 426 kts | 218° |
| 2026-05-09 13:19 | 21.39062 | 97.28083 | 36000 ft | 426 kts | 218° |
| 2026-05-09 13:20 | 21.34239 | 97.24376 | 36005 ft | 426 kts | 218° |
| 2026-05-09 13:20 | 21.29416 | 97.20677 | 35996 ft | 426 kts | 218° |
| 2026-05-09 13:21 | 21.24590 | 97.16976 | 35999 ft | 427 kts | 218° |
| 2026-05-09 13:21 | 21.19757 | 97.13279 | 36002 ft | 427 kts | 218° |
| 2026-05-09 13:22 | 21.14924 | 97.09584 | 36008 ft | 427 kts | 218° |
| 2026-05-09 13:22 | 21.10084 | 97.05878 | 36018 ft | 428 kts | 218° |
| 2026-05-09 13:23 | 20.97944 | 96.96615 | 36033 ft | 432 kts | 218° |
| 2026-05-09 13:24 | 20.93044 | 96.92865 | 36030 ft | 433 kts | 218° |
| 2026-05-09 13:24 | 20.88153 | 96.89139 | 36034 ft | 435 kts | 218° |
| 2026-05-09 13:25 | 20.83189 | 96.85369 | 36050 ft | 435 kts | 218° |
| 2026-05-09 13:26 | 20.75709 | 96.80062 | 36041 ft | 433 kts | 207° |
| 2026-05-09 13:26 | 20.69868 | 96.78378 | 36038 ft | 440 kts | 189° |
| 2026-05-09 13:27 | 20.63781 | 96.77675 | 36005 ft | 440 kts | 189° |
| 2026-05-09 13:27 | 20.57667 | 96.76949 | 36007 ft | 446 kts | 190° |
| 2026-05-09 13:28 | 20.51507 | 96.76205 | 36013 ft | 445 kts | 190° |
| 2026-05-09 13:28 | 20.45346 | 96.75470 | 36014 ft | 447 kts | 189° |
| 2026-05-09 13:29 | 20.39167 | 96.74726 | 36027 ft | 447 kts | 190° |
| 2026-05-09 13:29 | 20.32985 | 96.73979 | 36017 ft | 447 kts | 190° |
| 2026-05-09 13:30 | 20.26808 | 96.73243 | 36027 ft | 446 kts | 190° |
| 2026-05-09 13:30 | 20.20641 | 96.72514 | 36022 ft | 446 kts | 190° |
| 2026-05-09 13:31 | 20.14521 | 96.71784 | 36022 ft | 445 kts | 190° |
| 2026-05-09 13:31 | 20.08362 | 96.71049 | 36019 ft | 445 kts | 190° |
| 2026-05-09 13:32 | 20.02203 | 96.70317 | 36009 ft | 445 kts | 190° |
| 2026-05-09 13:32 | 19.92962 | 96.69226 | 35997 ft | 445 kts | 189° |
| 2026-05-09 13:33 | 19.86809 | 96.68498 | 35987 ft | 445 kts | 189° |
| 2026-05-09 13:33 | 19.80651 | 96.67767 | 35977 ft | 446 kts | 189° |
| 2026-05-09 13:34 | 19.74489 | 96.67033 | 35984 ft | 445 kts | 189° |
| 2026-05-09 13:34 | 19.68331 | 96.66300 | 35982 ft | 445 kts | 189° |
| 2026-05-09 13:35 | 19.62187 | 96.65576 | 35978 ft | 444 kts | 189° |
| 2026-05-09 13:35 | 19.56056 | 96.64851 | 35986 ft | 443 kts | 189° |
| 2026-05-09 13:36 | 19.49925 | 96.64128 | 35975 ft | 443 kts | 189° |
| 2026-05-09 13:36 | 19.43836 | 96.63411 | 35976 ft | 443 kts | 189° |
| 2026-05-09 13:37 | 19.37709 | 96.62683 | 35959 ft | 443 kts | 189° |
| 2026-05-09 13:37 | 19.31587 | 96.61967 | 35953 ft | 443 kts | 189° |
| 2026-05-09 13:38 | 19.25461 | 96.61247 | 35947 ft | 443 kts | 189° |
| 2026-05-09 13:38 | 19.19327 | 96.60527 | 35954 ft | 443 kts | 189° |
| 2026-05-09 13:39 | 19.13196 | 96.59801 | 35945 ft | 443 kts | 189° |
| 2026-05-09 13:39 | 19.07060 | 96.59078 | 35942 ft | 444 kts | 189° |
| 2026-05-09 13:40 | 19.00926 | 96.58361 | 35943 ft | 443 kts | 189° |
| 2026-05-09 13:40 | 18.94785 | 96.57644 | 35921 ft | 444 kts | 188° |
| 2026-05-09 13:41 | 18.88663 | 96.56926 | 35926 ft | 446 kts | 188° |
| 2026-05-09 13:41 | 18.82494 | 96.56194 | 35920 ft | 447 kts | 188° |
| 2026-05-09 13:42 | 18.76314 | 96.55467 | 35927 ft | 447 kts | 188° |
| 2026-05-09 13:42 | 18.70129 | 96.54749 | 35924 ft | 447 kts | 188° |
| 2026-05-09 13:43 | 18.64988 | 96.54149 | 35921 ft | 447 kts | 188° |
| 2026-05-09 13:43 | 18.61890 | 96.53790 | 35673 ft | 447 kts | 188° |
| 2026-05-09 13:43 | 18.58805 | 96.53434 | 35429 ft | 445 kts | 188° |
| 2026-05-09 13:44 | 18.55728 | 96.53074 | 35157 ft | 444 kts | 188° |
| 2026-05-09 13:44 | 18.52642 | 96.52713 | 34305 ft | 448 kts | 187° |
| 2026-05-09 13:44 | 18.49531 | 96.52338 | 33377 ft | 451 kts | 188° |
| 2026-05-09 13:44 | 18.46407 | 96.51968 | 32451 ft | 453 kts | 188° |
| 2026-05-09 13:45 | 18.43250 | 96.51599 | 31455 ft | 458 kts | 188° |
| 2026-05-09 13:45 | 18.40063 | 96.51227 | 30450 ft | 462 kts | 188° |
| 2026-05-09 13:45 | 18.36850 | 96.50854 | 29280 ft | 467 kts | 188° |
| 2026-05-09 13:45 | 18.33618 | 96.50477 | 28526 ft | 463 kts | 188° |
| 2026-05-09 13:46 | 18.30474 | 96.50117 | 28382 ft | 446 kts | 187° |
| 2026-05-09 13:46 | 18.27447 | 96.49770 | 28252 ft | 430 kts | 187° |
| 2026-05-09 13:46 | 18.24522 | 96.49430 | 28117 ft | 416 kts | 188° |
| 2026-05-09 13:46 | 18.21690 | 96.49105 | 27993 ft | 402 kts | 186° |
| 2026-05-09 13:47 | 18.18929 | 96.49090 | 27866 ft | 391 kts | 180° |
| 2026-05-09 13:47 | 18.16280 | 96.49179 | 27722 ft | 381 kts | 180° |
| 2026-05-09 13:47 | 18.13652 | 96.49268 | 27356 ft | 376 kts | 180° |
| 2026-05-09 13:47 | 18.11046 | 96.49356 | 26942 ft | 373 kts | 180° |
| 2026-05-09 13:48 | 18.08459 | 96.49441 | 26531 ft | 371 kts | 180° |
| 2026-05-09 13:48 | 18.05890 | 96.49524 | 26121 ft | 368 kts | 180° |
| 2026-05-09 13:48 | 18.03335 | 96.49606 | 25707 ft | 366 kts | 180° |
| 2026-05-09 13:48 | 18.00801 | 96.49691 | 25287 ft | 364 kts | 180° |
| 2026-05-09 13:49 | 17.98276 | 96.49778 | 24882 ft | 362 kts | 180° |
| 2026-05-09 13:49 | 17.95765 | 96.49864 | 24460 ft | 360 kts | 180° |
| 2026-05-09 13:49 | 17.93264 | 96.49946 | 24050 ft | 359 kts | 180° |
| 2026-05-09 13:49 | 17.90775 | 96.50027 | 23647 ft | 357 kts | 180° |
| 2026-05-09 13:50 | 17.88297 | 96.50106 | 23217 ft | 355 kts | 180° |
| 2026-05-09 13:50 | 17.85831 | 96.50187 | 22771 ft | 353 kts | 180° |
| 2026-05-09 13:50 | 17.83382 | 96.50268 | 22316 ft | 349 kts | 180° |
| 2026-05-09 13:50 | 17.80951 | 96.50350 | 21260 ft | 355 kts | 180° |
| 2026-05-09 13:51 | 17.78451 | 96.50435 | 20235 ft | 361 kts | 180° |
| 2026-05-09 13:51 | 17.75938 | 96.50521 | 19436 ft | 360 kts | 179° |
| 2026-05-09 13:51 | 17.75131 | 96.50548 | 19198 ft | 359 kts | 179° |